Time;durP1;ratioP1;P1;durP2;ratioP2;P2;SDS_P1;SDS_P2;PMS_P1;PMS_P2;Temp;Humidity;BMP_temperature;BMP_pressure;BME280_temperature;BME280_humidity;BME280_pressure;Samples;Min_cycle;Max_cycle;Signal;HPM_P1;HPM_P2
2022/09/15 06:26:31;;;;;;;6.45;2.15;;;;;;;16.35;100.00;97942.19;5158104;27;20634;-79
2022/09/15 06:28:59;;;;;;;4.32;2.25;;;;;;;16.38;100.00;97940.84;5150823;27;20073;-76
2022/09/15 06:31:27;;;;;;;7.22;2.20;;;;;;;16.44;100.00;97948.91;5136017;27;20055;-76
2022/09/15 06:33:57;;;;;;;4.30;2.30;;;;;;;16.44;100.00;97943.41;5147160;27;20042;-76
2022/09/15 06:36:25;;;;;;;2.80;2.08;;;;;;;16.54;100.00;97944.63;5149544;27;20077;-76
2022/09/15 06:38:52;;;;;;;4.57;2.13;;;;;;;16.60;100.00;97955.41;5149490;27;20057;-76
2022/09/15 06:41:19;;;;;;;3.40;2.08;;;;;;;16.74;100.00;97944.06;5149495;27;20054;-77
2022/09/15 06:43:48;;;;;;;3.22;2.20;;;;;;;16.87;100.00;97951.94;5148680;27;20043;-77
2022/09/15 06:46:16;;;;;;;3.75;2.40;;;;;;;16.81;100.00;97948.28;5147031;27;20489;-77
2022/09/15 06:48:43;;;;;;;5.13;2.22;;;;;;;16.85;100.00;97948.59;5143571;27;20100;-77
2022/09/15 06:51:12;;;;;;;3.13;2.33;;;;;;;16.92;100.00;97957.53;5149141;27;20501;-78
2022/09/15 06:53:39;;;;;;;3.72;2.55;;;;;;;17.03;100.00;97955.72;5148606;27;20415;-77
2022/09/15 06:56:07;;;;;;;4.75;2.58;;;;;;;17.03;100.00;97966.69;5149145;27;20091;-77
2022/09/15 06:58:35;;;;;;;7.65;2.53;;;;;;;17.03;100.00;97963.13;5148443;27;20081;-77
2022/09/15 07:01:07;;;;;;;5.80;2.70;;;;;;;16.98;100.00;97967.47;5148814;27;20414;-77
2022/09/15 07:03:34;;;;;;;5.53;2.42;;;;;;;17.02;100.00;97970.53;5141007;27;20462;-78
2022/09/15 07:06:01;;;;;;;4.18;2.40;;;;;;;17.02;100.00;97969.72;5149030;27;20050;-77
2022/09/15 07:08:27;;;;;;;7.22;2.33;;;;;;;17.04;100.00;97967.53;5148687;27;20138;-78
2022/09/15 07:10:54;;;;;;;10.07;4.05;;;;;;;17.01;100.00;97965.28;5149133;27;20095;-80
2022/09/15 07:13:21;;;;;;;3.67;2.42;;;;;;;17.06;100.00;97962.63;5147790;27;20126;-77
2022/09/15 07:15:51;;;;;;;4.18;2.70;;;;;;;17.14;100.00;97967.66;5144742;27;20375;-77
2022/09/15 07:18:20;;;;;;;8.10;2.65;;;;;;;17.16;100.00;97963.56;5146639;27;20104;-77
2022/09/15 07:20:46;;;;;;;5.40;2.22;;;;;;;17.10;100.00;97963.75;5148799;27;20051;-77
2022/09/15 07:23:12;;;;;;;13.60;2.90;;;;;;;17.14;100.00;97970.38;5140819;27;20100;-78
2022/09/15 07:25:43;;;;;;;7.32;2.83;;;;;;;17.11;100.00;97968.16;5127649;28;20094;-77
2022/09/15 07:28:09;;;;;;;;;;;;;;;17.02;100.00;97977.94;5127178;28;20054;-77
2022/09/15 07:30:36;;;;;;;5.63;2.92;;;;;;;17.05;100.00;97970.00;5115160;27;19919;-77
2022/09/15 07:33:02;;;;;;;4.28;2.72;;;;;;;17.14;100.00;97978.63;5125846;28;20044;-78
2022/09/15 07:35:30;;;;;;;9.35;2.67;;;;;;;17.10;100.00;97981.06;5126544;28;20097;-77
2022/09/15 07:37:56;;;;;;;7.13;2.83;;;;;;;17.04;100.00;97982.09;5113471;28;20043;-77
2022/09/15 07:40:23;;;;;;;5.05;2.20;;;;;;;17.04;100.00;97984.00;5113944;28;20090;-77
2022/09/15 07:42:49;;;;;;;4.03;2.35;;;;;;;17.07;100.00;97991.72;5112734;28;20490;-77
2022/09/15 07:45:16;;;;;;;5.57;2.17;;;;;;;17.04;100.00;97981.25;5110293;28;20363;-78
2022/09/15 07:47:42;;;;;;;4.97;2.50;;;;;;;17.11;100.00;97982.72;5105433;28;20055;-78
2022/09/15 07:50:09;;;;;;;6.35;2.28;;;;;;;17.11;100.00;97990.94;5111048;28;20051;-78
2022/09/15 07:52:37;;;;;;;2.75;1.90;;;;;;;17.21;100.00;97993.00;5112644;28;20149;-78
2022/09/15 07:55:04;;;;;;;3.58;2.28;;;;;;;17.21;100.00;97984.75;5113624;28;20402;-78
2022/09/15 07:57:30;;;;;;;6.28;2.20;;;;;;;17.24;100.00;97997.16;5113415;28;20544;-78
2022/09/15 07:59:57;;;;;;;5.68;2.75;;;;;;;17.42;100.00;97995.97;5113499;28;20559;-78
2022/09/15 08:02:23;;;;;;;10.05;2.55;;;;;;;17.56;100.00;97999.16;5111652;28;20055;-78
2022/09/15 08:04:50;;;;;;;3.60;2.20;;;;;;;17.46;100.00;97995.22;5102789;28;20489;-78
2022/09/15 08:07:16;;;;;;;3.60;1.92;;;;;;;17.49;100.00;98005.69;5111857;28;20044;-79
2022/09/15 08:09:44;;;;;;;4.47;2.30;;;;;;;17.50;100.00;98007.31;5113245;28;20444;-79
2022/09/15 08:12:11;;;;;;;3.40;2.15;;;;;;;17.50;100.00;98015.56;5109344;28;20483;-79
2022/09/15 08:14:37;;;;;;;6.40;2.30;;;;;;;17.45;100.00;98017.44;5110199;28;20150;-78
2022/09/15 08:17:04;;;;;;;3.25;1.83;;;;;;;17.49;100.00;98024.06;5113045;28;20044;-78
2022/09/15 08:19:32;;;;;;;7.90;2.00;;;;;;;17.38;100.00;98027.81;5112965;28;20096;-79
2022/09/15 08:21:59;;;;;;;5.78;2.88;;;;;;;17.29;100.00;98021.91;5112939;28;20044;-79
2022/09/15 08:24:25;;;;;;;4.60;2.70;;;;;;;17.24;100.00;98028.19;5112134;28;20043;-79
2022/09/15 08:26:54;;;;;;;4.95;2.40;;;;;;;17.22;100.00;98043.25;5107600;28;20452;-79
2022/09/15 08:29:20;;;;;;;5.47;1.42;;;;;;;17.12;100.00;98036.56;5106249;28;20058;-78
2022/09/15 08:31:48;;;;;;;6.10;1.70;;;;;;;17.10;100.00;98044.22;5112607;28;20040;-78
2022/09/15 08:34:16;;;;;;;6.55;1.40;;;;;;;17.15;100.00;98044.28;5110928;28;20085;-78
2022/09/15 08:36:42;;;;;;;3.75;1.17;;;;;;;16.95;100.00;98050.34;5112778;28;20051;-78
2022/09/15 08:39:09;;;;;;;3.78;1.15;;;;;;;17.02;100.00;98046.56;5112667;28;20456;-78
2022/09/15 08:41:38;;;;;;;1.48;0.80;;;;;;;17.02;100.00;98057.56;5111114;27;20048;-79
2022/09/15 08:44:20;;;;;;;6.05;0.70;;;;;;;17.00;100.00;98049.56;5104748;28;20039;-79
2022/09/15 08:46:52;;;;;;;2.78;0.63;;;;;;;16.99;100.00;98053.41;5111150;28;20047;-79
2022/09/15 08:49:24;;;;;;;1.10;0.60;;;;;;;17.08;100.00;98056.53;5111228;28;20067;-78
2022/09/15 08:51:53;;;;;;;1.13;0.50;;;;;;;17.02;100.00;98057.56;5112781;28;20059;-78
2022/09/15 08:54:24;;;;;;;1.38;0.50;;;;;;;17.06;100.00;98053.22;5111867;28;20392;-79
2022/09/15 08:56:51;;;;;;;1.92;0.75;;;;;;;17.12;100.00;98064.00;5109001;28;20043;-78
2022/09/15 08:59:20;;;;;;;0.95;0.55;;;;;;;17.06;100.00;98062.28;5108741;28;20089;-78
2022/09/15 09:02:00;;;;;;;0.77;0.45;;;;;;;17.12;100.00;98055.78;5110973;28;20144;-79
2022/09/15 09:04:47;;;;;;;1.05;0.50;;;;;;;17.06;100.00;98069.69;5107366;28;20052;-78
2022/09/15 09:07:26;;;;;;;1.17;0.30;;;;;;;17.11;100.00;98076.06;5112268;28;20082;-79
2022/09/15 09:09:59;;;;;;;0.68;0.47;;;;;;;17.01;100.00;98069.63;5111602;27;20510;-78
2022/09/15 09:12:52;;;;;;;0.50;0.30;;;;;;;16.96;100.00;98073.94;5109379;28;20058;-78
2022/09/15 09:15:29;;;;;;;1.17;0.50;;;;;;;16.94;100.00;98072.56;5106779;28;20104;-78
2022/09/15 09:18:13;;;;;;;0.90;0.52;;;;;;;16.97;100.00;98083.03;5111039;28;20066;-79
2022/09/15 09:20:48;;;;;;;0.63;0.60;;;;;;;16.94;100.00;98089.03;5112203;28;20047;-78
2022/09/15 09:23:17;;;;;;;0.73;0.50;;;;;;;16.76;100.00;98096.41;5111562;28;20489;-78
2022/09/15 09:25:44;;;;;;;1.30;0.60;;;;;;;16.84;100.00;98091.59;5110483;28;20052;-78
2022/09/15 09:28:24;;;;;;;2.25;0.52;;;;;;;16.73;100.00;98096.09;5103345;28;20035;-78
2022/09/15 09:30:52;;;;;;;0.63;0.50;;;;;;;16.69;100.00;98094.94;5112004;28;20051;-79
2022/09/15 09:33:29;;;;;;;1.08;0.60;;;;;;;16.34;100.00;98101.50;5107745;28;20096;-78
2022/09/15 09:35:58;;;;;;;3.15;0.77;;;;;;;16.04;100.00;98103.44;5111615;28;20054;-78
2022/09/15 09:38:28;;;;;;;3.90;0.85;;;;;;;15.87;100.00;98100.69;5111686;28;20506;-78
2022/09/15 09:40:56;;;;;;;2.90;1.00;;;;;;;15.65;100.00;98088.72;5111477;28;20040;-78
2022/09/15 09:43:22;;;;;;;1.20;1.10;;;;;;;15.54;100.00;98109.59;5108534;28;20055;-78
2022/09/15 09:45:49;;;;;;;1.92;1.15;;;;;;;15.45;100.00;98103.66;5111394;28;20052;-78
2022/09/15 09:48:20;;;;;;;2.35;1.23;;;;;;;15.32;100.00;98102.00;5111141;28;20047;-78
2022/09/15 09:50:48;;;;;;;3.75;1.17;;;;;;;15.35;100.00;98096.06;5111396;28;20491;-78
2022/09/15 09:53:19;;;;;;;5.15;2.20;;;;;;;15.37;100.00;98096.66;5110833;28;20050;-78
2022/09/15 09:55:46;;;;;;;4.35;1.70;;;;;;;15.40;100.00;98098.91;5111086;28;20047;-78
2022/09/15 09:58:17;;;;;;;4.65;1.73;;;;;;;15.32;100.00;98092.97;5108388;28;20399;-78
2022/09/15 10:00:44;;;;;;;2.38;1.50;;;;;;;15.27;100.00;98106.56;5110129;28;20050;-78
2022/09/15 10:03:14;;;;;;;3.25;1.60;;;;;;;15.27;100.00;98117.53;5110426;28;20046;-78
2022/09/15 10:05:43;;;;;;;3.92;1.85;;;;;;;15.27;100.00;98114.78;5111514;28;20047;-78
2022/09/15 10:08:18;;;;;;;4.45;1.67;;;;;;;15.19;100.00;98111.34;5111179;28;20047;-78
2022/09/15 10:10:51;;;;;;;3.10;1.80;;;;;;;15.16;100.00;98114.56;5109220;28;20130;-78
2022/09/15 10:13:18;;;;;;;4.50;2.00;;;;;;;15.07;100.00;98104.19;5110465;28;20052;-78
2022/09/15 10:15:53;;;;;;;3.80;1.90;;;;;;;15.00;100.00;98113.38;5110166;28;20046;-78
2022/09/15 10:18:28;;;;;;;2.38;1.77;;;;;;;14.87;100.00;98116.34;5110609;28;20105;-78
2022/09/15 10:20:56;;;;;;;4.22;1.73;;;;;;;14.75;100.00;98110.88;5111513;28;20043;-79
2022/09/15 10:23:27;;;;;;;7.15;2.50;;;;;;;14.84;100.00;98114.94;5108071;28;20510;-78
2022/09/15 10:25:57;;;;;;;2.58;2.13;;;;;;;14.83;100.00;98113.28;5110129;28;20054;-78
2022/09/15 10:28:25;;;;;;;4.28;2.38;;;;;;;14.77;100.00;98122.44;5102079;28;20048;-78
2022/09/15 10:31:04;;;;;;;8.60;2.35;;;;;;;14.79;100.00;98123.03;5110050;28;20052;-78
2022/09/15 10:33:33;;;;;;;6.72;2.92;;;;;;;14.69;100.00;98120.91;5109068;28;20139;-78
2022/09/15 10:36:05;;;;;;;3.70;2.58;;;;;;;14.60;100.00;98127.75;5111245;28;20077;-78
2022/09/15 10:38:38;;;;;;;4.60;2.28;;;;;;;14.55;100.00;98124.06;5109971;28;20051;-79
2022/09/15 10:41:13;;;;;;;4.43;2.10;;;;;;;14.40;100.00;98141.75;5109799;28;20040;-78
2022/09/15 10:43:50;;;;;;;2.30;2.10;;;;;;;14.39;100.00;98141.97;5109702;28;20048;-78
2022/09/15 10:46:24;;;;;;;5.95;2.72;;;;;;;14.28;100.00;98130.78;5110645;28;20048;-78
2022/09/15 10:49:03;;;;;;;7.07;2.42;;;;;;;14.40;100.00;98143.66;5110946;28;20387;-78
2022/09/15 10:51:42;;;;;;;4.35;2.30;;;;;;;14.26;100.00;98140.28;5110740;28;20047;-78
2022/09/15 10:54:26;;;;;;;4.90;2.80;;;;;;;14.22;100.00;98134.44;5107950;28;20135;-78
2022/09/15 10:57:00;;;;;;;6.00;3.22;;;;;;;14.28;100.00;98140.88;5110444;28;20292;-78
2022/09/15 10:59:37;;;;;;;4.75;3.20;;;;;;;14.30;100.00;98136.84;5110091;28;20494;-78
2022/09/15 11:02:27;;;;;;;9.68;3.58;;;;;;;14.27;100.00;98136.47;5110267;28;20052;-78
2022/09/15 11:05:10;;;;;;;5.33;3.10;;;;;;;14.30;100.00;98145.06;5110946;28;20061;-78
2022/09/15 11:07:48;;;;;;;4.82;2.80;;;;;;;14.25;100.00;98138.63;5108761;28;20298;-78
2022/09/15 11:10:23;;;;;;;6.32;2.33;;;;;;;14.08;100.00;98127.53;5104492;28;20048;-78
2022/09/15 11:13:00;;;;;;;2.33;2.13;;;;;;;14.15;100.00;98136.44;5111462;28;20054;-78
2022/09/15 11:15:43;;;;;;;6.40;1.95;;;;;;;14.10;100.00;98152.72;5114170;28;20043;-79
2022/09/15 11:18:33;;;;;;;3.53;1.73;;;;;;;14.04;100.00;98159.94;5114544;28;20087;-79
2022/09/15 11:21:16;;;;;;;5.15;2.20;;;;;;;14.14;100.00;98170.31;5114790;28;20048;-78
2022/09/15 11:23:50;;;;;;;6.57;2.35;;;;;;;14.23;100.00;98170.84;5111715;28;20100;-79
2022/09/15 11:26:22;;;;;;;2.33;1.65;;;;;;;14.30;100.00;98166.94;5106407;28;20070;-79
2022/09/15 11:28:53;;;;;;;4.88;2.08;;;;;;;14.40;100.00;98177.28;5113496;28;20047;-79
2022/09/15 11:31:26;;;;;;;2.72;1.80;;;;;;;14.57;100.00;98173.88;5114216;28;20044;-78
2022/09/15 11:33:58;;;;;;;2.45;1.60;;;;;;;14.65;100.00;98179.06;5111063;28;20491;-78
2022/09/15 11:36:32;;;;;;;3.67;1.90;;;;;;;14.60;100.00;98174.25;5100931;28;20047;-78
2022/09/15 11:39:07;;;;;;;2.88;1.83;;;;;;;14.66;100.00;98169.75;5105922;28;20047;-78
2022/09/15 11:41:37;;;;;;;4.50;1.95;;;;;;;14.77;100.00;98185.38;5112980;28;20044;-78
2022/09/15 11:44:17;;;;;;;2.20;1.80;;;;;;;14.77;100.00;98187.25;5113393;28;20047;-78
2022/09/15 11:46:58;;;;;;;3.42;1.98;;;;;;;14.75;100.00;98184.75;5114130;28;20047;-78
2022/09/15 11:49:29;;;;;;;3.50;1.65;;;;;;;14.73;100.00;98186.06;5112091;28;20051;-78
2022/09/15 11:52:01;;;;;;;4.32;1.55;;;;;;;15.01;100.00;98193.59;5113697;28;20040;-78
2022/09/15 11:54:37;;;;;;;6.22;2.38;;;;;;;15.16;100.00;98198.56;5113324;28;20056;-79
2022/09/15 11:57:04;;;;;;;4.85;2.20;;;;;;;15.13;100.00;98199.91;5113542;28;20310;-78
2022/09/15 11:59:40;;;;;;;6.35;3.17;;;;;;;15.19;100.00;98206.31;5111829;28;20055;-79
2022/09/15 12:02:19;;;;;;;7.50;3.67;;;;;;;15.31;100.00;98217.25;5092655;28;20048;-78
2022/09/15 12:04:57;;;;;;;2.97;1.90;;;;;;;15.35;100.00;98226.66;5112087;28;20055;-78
2022/09/15 12:07:27;;;;;;;8.43;2.75;;;;;;;15.19;100.00;98231.81;5113481;28;20504;-79
2022/09/15 12:09:56;;;;;;;6.80;2.22;;;;;;;15.27;100.00;98238.00;5113517;28;20044;-79
2022/09/15 12:12:23;;;;;;;5.30;1.80;;;;;;;15.19;100.00;98229.06;5112158;28;20097;-79
2022/09/15 12:14:52;;;;;;;5.15;2.17;;;;;;;15.30;100.00;98226.56;5113514;28;20059;-79
2022/09/15 12:17:26;;;;;;;5.88;3.00;;;;;;;15.39;100.00;98233.34;5110899;28;20446;-79
2022/09/15 12:19:59;;;;;;;3.35;2.38;;;;;;;15.42;100.00;98245.75;5113393;28;20055;-78
2022/09/15 12:22:31;;;;;;;3.95;2.40;;;;;;;15.42;100.00;98243.81;5112439;28;20060;-79
2022/09/15 12:25:03;;;;;;;3.75;2.33;;;;;;;15.43;100.00;98250.13;5108642;27;20148;-79
2022/09/15 12:27:30;;;;;;;5.95;2.55;;;;;;;15.50;100.00;98242.63;5110337;27;20073;-79
2022/09/15 12:29:58;;;;;;;3.05;2.55;;;;;;;15.47;100.00;98243.91;5112944;28;20096;-78
2022/09/15 12:32:27;;;;;;;5.68;3.35;;;;;;;15.64;100.00;98256.91;5112245;28;20074;-79
2022/09/15 12:35:03;;;;;;;5.88;3.65;;;;;;;15.91;100.00;98252.59;5112179;28;20047;-79
2022/09/15 12:37:36;;;;;;;5.28;3.50;;;;;;;15.98;100.00;98259.84;5112927;28;20422;-79
2022/09/15 12:40:07;;;;;;;6.05;4.25;;;;;;;16.08;100.00;98249.94;5106649;28;20048;-79
2022/09/15 12:42:35;;;;;;;7.75;3.80;;;;;;;16.17;100.00;98255.00;5106566;28;20048;-79
2022/09/15 12:45:05;;;;;;;10.10;3.88;;;;;;;16.29;100.00;98253.09;5112778;28;20375;-79
2022/09/15 12:47:35;;;;;;;6.78;3.40;;;;;;;16.44;100.00;98256.13;5112626;28;20044;-79
2022/09/15 12:50:08;;;;;;;9.55;4.32;;;;;;;16.63;100.00;98256.75;5112948;28;20048;-79
2022/09/15 12:52:44;;;;;;;12.70;3.95;;;;;;;16.39;100.00;98257.91;5111869;28;20051;-78
2022/09/15 12:55:19;;;;;;;6.80;4.00;;;;;;;16.48;100.00;98263.84;5111380;28;20094;-79
2022/09/15 12:57:52;;;;;;;4.88;3.47;;;;;;;16.59;100.00;98269.28;5112278;28;20051;-79
2022/09/15 13:00:32;;;;;;;7.82;3.72;;;;;;;16.40;100.00;98263.16;5110200;28;20081;-78
2022/09/15 13:03:00;;;;;;;5.78;3.38;;;;;;;16.64;100.00;98260.31;5104036;28;20047;-79
2022/09/15 13:06:00;;;;;;;5.65;3.47;;;;;;;16.68;100.00;98268.88;5112136;28;20055;-79
2022/09/15 13:08:44;;;;;;;;;;;;;;;16.74;100.00;98265.13;5095176;28;20231;-79
2022/09/15 13:11:14;;;;;;;5.80;3.55;;;;;;;16.86;100.00;98262.34;5091781;28;20011;-79
2022/09/15 13:13:46;;;;;;;7.28;3.55;;;;;;;17.02;100.00;98271.72;5091037;28;20056;-79
2022/09/15 13:16:18;;;;;;;4.50;3.10;;;;;;;16.83;100.00;98276.56;5102802;28;20126;-79
2022/09/15 13:18:46;;;;;;;6.43;3.30;;;;;;;16.97;100.00;98273.28;5110611;28;20526;-78
2022/09/15 13:21:19;;;;;;;5.47;3.20;;;;;;;17.10;100.00;98272.13;5111105;28;20096;-78
2022/09/15 13:23:47;;;;;;;7.00;3.15;;;;;;;17.15;100.00;98274.13;5111288;28;20264;-78
2022/09/15 13:26:22;;;;;;;9.80;3.38;;;;;;;17.33;100.00;98262.06;5111766;28;20048;-78
2022/09/15 13:28:51;;;;;;;6.10;2.90;;;;;;;17.30;100.00;98274.38;5111778;28;20494;-78
2022/09/15 13:31:29;;;;;;;3.50;2.60;;;;;;;17.49;100.00;98271.34;5110814;28;20479;-78
2022/09/15 13:34:19;;;;;;;3.60;2.25;;;;;;;17.61;100.00;98268.50;5106271;28;20051;-78
2022/09/15 13:37:03;;;;;;;4.38;2.05;;;;;;;17.68;99.83;98259.00;5111550;28;20485;-78
2022/09/15 13:40:01;;;;;;;4.35;1.83;;;;;;;17.60;100.00;98262.19;5111530;28;20047;-78
2022/09/15 13:42:41;;;;;;;5.72;2.08;;;;;;;17.27;100.00;98257.56;5110942;28;20051;-78
2022/09/15 13:45:23;;;;;;;;;;;;;;;17.34;100.00;98269.19;5112256;28;20051;-78
2022/09/15 13:48:01;;;;;;;3.65;1.80;;;;;;;17.18;100.00;98254.41;5109380;28;19919;-77
2022/09/15 13:50:34;;;;;;;4.60;1.70;;;;;;;17.00;100.00;98260.97;5111198;28;20048;-76
2022/09/15 13:53:16;;;;;;;4.35;1.77;;;;;;;17.11;100.00;98262.78;5107801;28;20448;-76
2022/09/15 13:55:44;;;;;;;5.10;2.30;;;;;;;17.35;100.00;98257.13;5110141;28;20055;-77
2022/09/15 13:58:15;;;;;;;4.20;2.20;;;;;;;17.53;100.00;98264.28;5111446;28;20051;-77
2022/09/15 14:00:53;;;;;;;4.03;2.60;;;;;;;17.52;100.00;98246.97;5105888;28;20050;-77
2022/09/15 14:03:24;;;;;;;2.97;2.70;;;;;;;17.69;100.00;98262.59;5105382;28;20071;-77
2022/09/15 14:05:52;;;;;;;5.75;2.35;;;;;;;17.75;100.00;98261.56;5111619;28;20157;-77
2022/09/15 14:08:22;;;;;;;6.40;2.17;;;;;;;17.49;100.00;98261.22;5110961;28;20047;-77
2022/09/15 14:10:54;;;;;;;4.18;2.03;;;;;;;17.56;100.00;98254.69;5110964;28;20078;-77
2022/09/15 14:13:25;;;;;;;13.85;2.03;;;;;;;17.82;100.00;98244.88;5109089;28;20048;-77
2022/09/15 14:16:00;;;;;;;3.15;1.98;;;;;;;18.17;97.03;98241.78;5110112;28;20052;-77
2022/09/15 14:18:27;;;;;;;3.17;1.60;;;;;;;18.28;97.29;98245.50;5110994;28;20055;-78
2022/09/15 14:20:59;;;;;;;3.45;1.65;;;;;;;18.34;91.27;98224.38;5110809;28;20043;-77
2022/09/15 14:23:25;;;;;;;3.20;1.63;;;;;;;18.77;90.10;98233.59;5110087;28;20490;-77
2022/09/15 14:25:52;;;;;;;5.20;2.00;;;;;;;18.46;88.51;98225.03;5110929;28;20043;-77
2022/09/15 14:28:26;;;;;;;4.93;1.52;;;;;;;18.68;86.61;98241.50;5109710;28;20052;-78
2022/09/15 14:30:53;;;;;;;4.32;2.17;;;;;;;18.84;88.15;98233.41;5109466;28;20414;-77
2022/09/15 14:33:20;;;;;;;4.43;1.70;;;;;;;19.05;89.39;98242.69;5108517;28;20055;-77
2022/09/15 14:35:47;;;;;;;9.57;2.47;;;;;;;19.10;83.87;98246.31;5110620;28;20077;-77
2022/09/15 14:38:21;;;;;;;5.15;2.28;;;;;;;19.04;82.90;98236.34;5110695;28;20062;-77
2022/09/15 14:40:52;;;;;;;4.75;2.00;;;;;;;19.09;84.17;98254.84;5111089;28;20100;-77
2022/09/15 14:43:27;;;;;;;4.97;1.80;;;;;;;19.09;79.81;98255.66;5106306;28;20146;-77
2022/09/15 14:45:54;;;;;;;7.80;1.65;;;;;;;18.97;79.86;98251.41;5110349;28;20043;-77
2022/09/15 14:48:26;;;;;;;6.85;3.33;;;;;;;18.86;85.61;98242.25;5114869;28;20302;-78
2022/09/15 14:51:01;;;;;;;12.00;5.43;;;;;;;18.82;87.63;98252.94;5115055;28;20047;-78
2022/09/15 14:53:33;;;;;;;5.50;2.80;;;;;;;18.48;90.28;98252.31;5113888;28;20055;-78
2022/09/15 14:56:06;;;;;;;6.65;2.40;;;;;;;18.13;91.88;98239.81;5115025;28;20047;-78
2022/09/15 14:58:37;;;;;;;2.85;1.85;;;;;;;18.08;88.07;98261.72;5105125;28;20051;-78
2022/09/15 15:01:07;;;;;;;6.57;1.90;;;;;;;17.78;90.22;98250.06;5113442;28;20050;-77
2022/09/15 15:03:38;;;;;;;;;;;;;;;17.91;94.04;98268.13;5114458;28;20047;-78
2022/09/15 15:06:11;;;;;;;9.70;2.47;;;;;;;17.86;94.61;98277.09;5114625;28;19958;-78
2022/09/15 15:08:43;;;;;;;5.70;3.08;;;;;;;18.15;98.59;98268.69;5094333;28;20113;-78
2022/09/15 15:11:15;;;;;;;9.02;4.03;;;;;;;18.14;95.19;98269.81;5094733;28;20090;-78
2022/09/15 15:13:47;;;;;;;6.85;2.65;;;;;;;18.14;95.62;98263.47;5101815;28;20048;-78
2022/09/15 15:16:19;;;;;;;9.43;1.83;;;;;;;18.21;92.20;98272.34;5113561;28;20039;-78
2022/09/15 15:18:46;;;;;;;4.18;1.77;;;;;;;17.90;90.75;98271.13;5114582;28;20056;-78
2022/09/15 15:21:36;;;;;;;2.95;1.98;;;;;;;17.87;88.98;98273.28;5113816;28;20051;-78
2022/09/15 15:24:09;;;;;;;5.73;2.23;;;;;;;17.62;89.03;98267.44;5112597;28;20558;-78
2022/09/15 15:26:37;;;;;;;2.47;2.05;;;;;;;17.64;91.24;98277.09;5114028;28;20105;-78
2022/09/15 15:29:08;;;;;;;3.13;2.17;;;;;;;17.63;90.10;98277.31;5114181;28;20498;-78
2022/09/15 15:31:39;;;;;;;2.90;1.90;;;;;;;17.87;87.45;98278.78;5112675;28;20494;-78
2022/09/15 15:34:22;;;;;;;6.78;2.42;;;;;;;18.30;84.34;98265.31;5111949;28;20051;-78
2022/09/15 15:36:49;;;;;;;4.65;2.30;;;;;;;18.34;86.25;98274.72;5113877;28;20453;-78
2022/09/15 15:39:24;;;;;;;6.63;2.15;;;;;;;18.15;89.09;98273.38;5109322;28;20043;-78
2022/09/15 15:42:01;;;;;;;3.05;2.10;;;;;;;17.93;92.21;98276.97;5113382;28;20441;-78
2022/09/15 15:44:30;;;;;;;5.35;2.10;;;;;;;17.56;87.04;98261.00;5113640;28;20097;-77
2022/09/15 15:47:01;;;;;;;8.80;2.80;;;;;;;17.61;90.74;98285.81;5114249;28;20446;-78
2022/09/15 15:49:29;;;;;;;7.28;2.58;;;;;;;17.53;96.13;98280.75;5113944;28;20075;-78
2022/09/15 15:51:57;;;;;;;3.30;2.05;;;;;;;17.39;94.77;98273.94;5113600;28;20063;-78
2022/09/15 15:54:23;;;;;;;5.28;2.55;;;;;;;17.38;94.17;98278.59;5112366;28;20047;-78
2022/09/15 15:56:51;;;;;;;5.65;2.30;;;;;;;17.40;96.15;98279.19;5111652;28;20410;-78
2022/09/15 15:59:18;;;;;;;4.78;2.55;;;;;;;17.39;92.99;98283.03;5113437;28;20044;-78
2022/09/15 16:01:48;;;;;;;6.90;2.35;;;;;;;17.29;94.65;98286.44;5113790;28;20047;-78
2022/09/15 16:04:16;;;;;;;4.15;3.10;;;;;;;17.20;93.40;98274.19;5112744;28;20051;-78
2022/09/15 16:06:44;;;;;;;3.70;2.65;;;;;;;17.26;97.73;98278.69;5113702;28;20047;-78
2022/09/15 16:09:13;;;;;;;4.10;2.80;;;;;;;17.24;100.00;98280.88;5111976;28;20044;-78
2022/09/15 16:11:40;;;;;;;6.22;2.95;;;;;;;17.07;96.59;98267.16;5111478;28;20384;-78
2022/09/15 16:14:11;;;;;;;8.88;3.22;;;;;;;17.09;97.98;98280.63;5112487;28;20052;-78
2022/09/15 16:16:37;;;;;;;6.78;2.78;;;;;;;16.95;95.27;98280.09;5113456;28;20495;-78
2022/09/15 16:19:05;;;;;;;9.13;3.13;;;;;;;16.90;98.47;98285.50;5113379;28;20048;-78
2022/09/15 16:21:36;;;;;;;6.03;2.95;;;;;;;16.86;100.00;98278.81;5112231;28;20059;-78
2022/09/15 16:24:02;;;;;;;8.88;2.95;;;;;;;16.92;100.00;98297.91;5112679;28;20130;-78
2022/09/15 16:26:30;;;;;;;5.13;2.90;;;;;;;16.78;100.00;98289.09;5111956;28;20044;-78
2022/09/15 16:28:57;;;;;;;4.72;2.60;;;;;;;16.88;98.93;98293.16;5112437;28;20050;-78
2022/09/15 16:31:23;;;;;;;6.45;3.15;;;;;;;16.81;100.00;98276.81;5113264;28;20055;-78
2022/09/15 16:33:50;;;;;;;6.97;2.53;;;;;;;16.80;97.00;98295.19;5110463;28;20532;-77
2022/09/15 16:36:17;;;;;;;5.85;2.97;;;;;;;16.72;99.80;98287.34;5102178;28;20058;-77
2022/09/15 16:38:44;;;;;;;7.18;3.28;;;;;;;16.91;100.00;98300.91;5111617;28;20076;-76
2022/09/15 16:41:14;;;;;;;5.22;3.28;;;;;;;16.89;100.00;98308.53;5112622;28;20040;-77
2022/09/15 16:43:41;;;;;;;5.75;2.92;;;;;;;16.90;99.79;98304.72;5110886;28;20050;-77
2022/09/15 16:46:09;;;;;;;5.22;3.05;;;;;;;16.86;100.00;98309.84;5112757;28;20078;-77
2022/09/15 16:48:36;;;;;;;7.28;3.38;;;;;;;16.85;100.00;98308.19;5112657;28;20164;-77
2022/09/15 16:51:02;;;;;;;3.70;2.97;;;;;;;16.85;100.00;98316.41;5094771;28;20109;-77
2022/09/15 16:53:31;;;;;;;4.57;2.63;;;;;;;16.68;100.00;98307.28;5090622;28;20056;-77
2022/09/15 16:55:58;;;;;;;4.45;3.03;;;;;;;16.76;100.00;98315.97;5107679;28;20040;-77
2022/09/15 16:58:24;;;;;;;6.07;3.22;;;;;;;16.72;100.00;98316.72;5110457;28;20052;-77
2022/09/15 17:00:51;;;;;;;6.57;3.60;;;;;;;16.79;100.00;98326.47;5108739;28;20047;-77
2022/09/15 17:03:20;;;;;;;6.10;4.10;;;;;;;16.71;100.00;98318.63;5109230;28;20157;-77
2022/09/15 17:05:49;;;;;;;7.95;4.07;;;;;;;16.68;100.00;98319.13;5109964;28;20075;-78
2022/09/15 17:08:16;;;;;;;3.75;3.28;;;;;;;16.74;100.00;98336.50;5108719;28;20074;-79
2022/09/15 17:10:45;;;;;;;6.60;3.90;;;;;;;16.67;100.00;98328.44;5102110;28;20059;-78
2022/09/15 17:13:15;;;;;;;6.63;3.28;;;;;;;16.66;100.00;98329.50;5108658;28;20043;-77
2022/09/15 17:15:41;;;;;;;4.30;3.17;;;;;;;16.64;100.00;98339.91;5110144;28;20464;-78
2022/09/15 17:18:12;;;;;;;5.53;3.10;;;;;;;16.71;100.00;98328.75;5108875;28;20035;-78
2022/09/15 17:20:42;;;;;;;5.57;3.15;;;;;;;16.60;100.00;98325.81;5109648;28;20124;-78
2022/09/15 17:23:18;;;;;;;5.03;3.22;;;;;;;16.54;100.00;98335.03;5106794;28;20087;-78
2022/09/15 17:25:51;;;;;;;3.60;3.00;;;;;;;16.53;100.00;98335.28;5109755;28;20043;-78
2022/09/15 17:28:19;;;;;;;4.85;3.10;;;;;;;16.52;100.00;98334.44;5107120;28;20089;-78
2022/09/15 17:30:46;;;;;;;6.72;2.83;;;;;;;16.49;100.00;98337.69;5091704;28;20150;-78
2022/09/15 17:33:14;;;;;;;5.47;3.20;;;;;;;16.44;100.00;98341.16;5108477;28;20078;-78
2022/09/15 17:35:41;;;;;;;6.47;3.03;;;;;;;16.42;100.00;98340.56;5105626;28;20518;-78
2022/09/15 17:38:08;;;;;;;4.93;3.28;;;;;;;16.42;100.00;98336.97;5102223;28;20039;-78
2022/09/15 17:40:36;;;;;;;3.45;2.97;;;;;;;16.46;100.00;98336.25;5107019;27;20059;-77
2022/09/15 17:43:03;;;;;;;5.65;3.30;;;;;;;16.44;100.00;98337.59;5100774;28;20064;-78
2022/09/15 17:45:32;;;;;;;6.20;3.22;;;;;;;16.37;100.00;98331.41;5107906;28;20058;-78
2022/09/15 17:47:58;;;;;;;5.78;3.40;;;;;;;16.31;100.00;98335.13;5101015;28;20047;-78
2022/09/15 17:50:27;;;;;;;3.88;2.80;;;;;;;16.21;100.00;98335.72;5108788;28;20175;-77
2022/09/15 17:52:54;;;;;;;7.03;4.35;;;;;;;16.24;100.00;98340.72;5107935;28;20059;-77
2022/09/15 17:55:23;;;;;;;7.13;2.85;;;;;;;16.19;100.00;98346.09;5100548;27;20058;-78
2022/09/15 17:57:50;;;;;;;6.50;3.88;;;;;;;16.14;100.00;98346.84;5106816;28;20075;-77
2022/09/15 18:00:19;;;;;;;6.00;3.40;;;;;;;16.19;100.00;98346.94;5107284;28;20039;-78
2022/09/15 18:02:49;;;;;;;12.77;3.30;;;;;;;16.10;100.00;98346.47;5101428;28;20483;-78
2022/09/15 18:05:19;;;;;;;6.43;3.60;;;;;;;16.06;100.00;98341.72;5108618;28;20081;-78
2022/09/15 18:07:45;;;;;;;5.32;3.30;;;;;;;15.98;100.00;98350.31;5108959;28;20052;-77
2022/09/15 18:10:12;;;;;;;4.10;3.35;;;;;;;15.88;100.00;98342.69;5109009;28;20096;-77
